createdAt,value
2023-05-01T00:03:06.712Z,2.58
2023-05-01T00:08:36.994Z,3.31
2023-05-01T00:13:44.901Z,5.12
2023-05-01T00:18:48.651Z,5.27
2023-05-01T00:24:24.625Z,5.49
2023-05-01T00:36:18.987Z,5.83
2023-05-01T00:42:45.380Z,5.92
2023-05-01T00:47:49.792Z,5.91
2023-05-01T00:53:26.706Z,6.04
2023-05-01T00:58:57.967Z,8.09
2023-05-01T01:04:47.819Z,8.00
2023-05-01T01:17:33.158Z,4.26
2023-05-01T01:22:44.614Z,3.45
2023-05-01T01:33:52.036Z,2.47
2023-05-01T01:39:46.154Z,4.05
2023-05-01T01:45:29.591Z,6.59
2023-05-01T01:51:00.224Z,7.30
2023-05-01T01:56:09.968Z,5.35
2023-05-01T02:01:20.036Z,4.16
2023-05-01T02:06:26.453Z,3.29
2023-05-01T02:11:56.423Z,2.58
2023-05-01T02:17:01.296Z,3.24
2023-05-01T02:22:56.536Z,5.12
2023-05-01T02:28:10.840Z,4.89
2023-05-01T02:33:14.616Z,4.74
2023-05-01T02:38:44.569Z,4.81
2023-05-01T02:43:53.912Z,4.97
2023-05-01T02:49:28.281Z,5.12
2023-05-01T02:54:32.688Z,5.16
2023-05-01T02:59:38.482Z,5.04
2023-05-01T03:04:44.325Z,5.04
2023-05-01T03:10:08.289Z,5.04
2023-05-01T03:15:13.333Z,5.09
2023-05-01T03:20:41.910Z,5.12
2023-05-01T03:27:00.497Z,5.03
2023-05-01T03:32:55.749Z,5.10
2023-05-01T03:38:51.528Z,5.07
2023-05-01T03:44:23.091Z,5.02
2023-05-01T03:49:26.845Z,4.81
2023-05-01T03:54:46.196Z,4.74
2023-05-01T03:59:50.803Z,4.83
2023-05-01T04:12:02.873Z,5.23
2023-05-01T04:17:32.658Z,5.40
2023-05-01T04:23:37.679Z,5.48
2023-05-01T04:28:41.716Z,5.66
2023-05-01T04:34:11.526Z,5.90
2023-05-01T04:39:21.213Z,6.16
2023-05-01T04:45:16.547Z,6.44
2023-05-01T04:50:39.162Z,6.83
2023-05-01T04:55:43.013Z,7.04
2023-05-01T05:15:46.096Z,6.20
2023-05-01T05:35:56.268Z,7.45
2023-05-01T05:41:01.326Z,8.61
2023-05-01T05:46:05.423Z,8.69
2023-05-01T05:51:35.164Z,8.10
2023-05-01T05:56:57.799Z,7.85
2023-05-01T06:02:09.954Z,9.63
2023-05-01T06:24:32.649Z,8.73
2023-05-01T06:58:42.359Z,9.84
2023-05-01T07:04:11.845Z,10.07
2023-05-01T07:09:16.989Z,10.37
2023-05-01T07:21:36.615Z,10.84
2023-05-01T07:26:40.765Z,10.92
2023-05-01T07:31:46.597Z,11.17
2023-05-01T07:37:40.557Z,11.15
2023-05-01T08:12:22.622Z,11.65
2023-05-01T08:17:37.349Z,11.78
2023-05-01T08:22:41.263Z,12.07
2023-05-01T08:27:45.155Z,12.35
2023-05-01T08:33:16.705Z,12.54
2023-05-01T08:38:20.760Z,12.77
2023-05-01T08:43:27.214Z,12.79
2023-05-01T09:03:18.401Z,13.72
2023-05-01T09:15:13.358Z,13.96
2023-05-01T09:20:20.031Z,14.17
2023-05-01T09:34:34.758Z,14.45
2023-05-01T09:40:59.180Z,14.63
2023-05-01T09:46:55.193Z,15.02
2023-05-01T09:52:15.512Z,15.60
2023-05-01T09:57:38.644Z,15.70
2023-05-01T10:02:50.857Z,15.86
2023-05-01T10:08:06.371Z,15.93
2023-05-01T10:13:19.818Z,15.83
2023-05-01T10:18:25.919Z,15.85
2023-05-01T10:23:57.464Z,15.90
2023-05-01T10:29:03.589Z,16.18
2023-05-01T10:34:08.728Z,15.91
2023-05-01T10:39:34.187Z,15.68
2023-05-01T10:44:38.421Z,15.92
2023-05-01T10:50:05.203Z,16.23
2023-05-01T10:55:44.674Z,16.65
2023-05-01T11:01:37.954Z,16.51
2023-05-01T11:07:02.636Z,16.48
2023-05-01T11:12:08.873Z,16.50
2023-05-01T11:17:34.536Z,16.63
2023-05-01T11:22:46.177Z,16.56
2023-05-01T11:27:58.999Z,16.51
2023-05-01T11:33:05.506Z,16.69
2023-05-01T11:38:22.105Z,16.53
2023-05-01T11:43:27.442Z,16.45
2023-05-01T11:48:32.447Z,16.58
2023-05-01T11:53:36.742Z,16.74
2023-05-01T11:58:40.653Z,16.74
2023-05-01T12:03:45.694Z,16.84
2023-05-01T12:08:53.445Z,16.96
2023-05-01T12:13:58.281Z,16.88
2023-05-01T12:19:03.359Z,16.95
2023-05-01T12:24:17.065Z,17.03
2023-05-01T12:29:21.947Z,17.17
2023-05-01T12:34:34.003Z,17.14
2023-05-01T12:39:45.054Z,17.19
2023-05-01T12:44:49.196Z,17.44
2023-05-01T12:50:05.650Z,17.39
2023-05-01T12:55:10.257Z,17.39
2023-05-01T13:00:50.230Z,17.64
2023-05-01T13:07:11.370Z,18.10
2023-05-01T13:12:15.203Z,18.42
2023-05-01T13:17:33.909Z,18.51
2023-05-01T13:22:39.985Z,18.72
2023-05-01T13:27:52.802Z,18.92
2023-05-01T13:32:56.815Z,18.59
2023-05-01T13:38:04.252Z,18.46
2023-05-01T13:43:18.360Z,18.42
2023-05-01T13:48:22.924Z,18.21
2023-05-01T13:53:26.772Z,18.41
2023-05-01T13:58:31.504Z,18.89
2023-05-01T14:03:42.886Z,19.20
2023-05-01T14:08:51.892Z,19.40
2023-05-01T14:14:00.684Z,19.51
2023-05-01T14:19:06.381Z,19.36
2023-05-01T14:24:10.829Z,19.33
2023-05-01T14:29:24.393Z,19.16
2023-05-01T14:34:31.612Z,19.14
2023-05-01T14:39:39.827Z,19.27
2023-05-01T14:44:44.039Z,19.56
2023-05-01T14:49:54.683Z,19.92
2023-05-01T14:54:59.289Z,20.68
2023-05-01T15:00:07.074Z,21.65
2023-05-01T15:05:11.042Z,23.27
2023-05-01T15:10:17.321Z,24.68
2023-05-01T15:15:21.990Z,25.73
2023-05-01T15:20:26.945Z,26.16
2023-05-01T15:25:30.780Z,26.20
2023-05-01T15:30:59.854Z,26.09
2023-05-01T15:36:04.469Z,25.60
2023-05-01T15:41:08.572Z,24.84
2023-05-01T15:46:35.278Z,24.55
2023-05-01T15:52:05.177Z,24.49
2023-05-01T15:57:10.743Z,24.51
2023-05-01T16:02:39.802Z,24.36
2023-05-01T16:08:09.377Z,24.41
2023-05-01T16:13:15.348Z,23.96
2023-05-01T16:18:24.610Z,23.34
2023-05-01T16:24:43.088Z,22.92
2023-05-01T16:30:17.503Z,22.44
2023-05-01T16:35:28.861Z,21.87
2023-05-01T16:41:25.362Z,21.36
2023-05-01T17:02:07.505Z,20.81
2023-05-01T17:14:56.949Z,19.92
2023-05-01T17:20:37.488Z,19.20
2023-05-01T17:33:34.096Z,17.28
2023-05-01T17:38:38.381Z,16.68
2023-05-01T17:43:45.143Z,16.26
2023-05-01T17:49:36.227Z,15.93
2023-05-01T17:54:40.315Z,15.56
2023-05-01T18:00:29.161Z,15.27
2023-05-01T18:06:26.554Z,15.04
2023-05-01T18:12:53.041Z,14.82
2023-05-01T18:17:57.385Z,14.52
2023-05-01T18:23:02.471Z,14.31
2023-05-01T18:28:42.250Z,14.10
2023-05-01T18:55:31.393Z,13.40
2023-05-01T19:06:29.451Z,13.10
2023-05-01T19:11:33.447Z,12.91
2023-05-01T19:16:37.728Z,12.75
2023-05-01T19:46:12.780Z,11.86
2023-05-01T19:51:22.058Z,11.67
2023-05-01T20:02:27.532Z,11.36
2023-05-01T20:07:38.784Z,11.22
2023-05-01T20:26:30.852Z,10.82
2023-05-01T20:32:27.421Z,10.69
2023-05-01T20:38:22.325Z,10.58
2023-05-01T20:57:36.739Z,10.32
2023-05-01T21:03:34.528Z,10.31
2023-05-01T21:09:15.300Z,10.31
2023-05-01T21:14:19.120Z,10.26
2023-05-01T21:19:28.377Z,10.17
2023-05-01T21:25:27.532Z,10.10
2023-05-01T21:30:57.630Z,10.08
2023-05-01T21:36:01.496Z,10.09
2023-05-01T21:41:06.112Z,10.13
2023-05-01T21:46:19.571Z,10.15
2023-05-01T21:52:45.720Z,10.15
2023-05-01T21:58:35.445Z,10.14
2023-05-01T22:03:41.915Z,10.13
2023-05-01T22:09:20.699Z,10.09
2023-05-01T22:14:30.814Z,10.03
2023-05-01T22:27:17.851Z,9.83
2023-05-01T22:32:47.171Z,9.68
2023-05-01T22:38:41.647Z,9.56
2023-05-01T22:43:46.089Z,9.46
2023-05-01T22:49:15.124Z,9.43
2023-05-01T22:54:46.476Z,9.47
2023-05-01T23:00:15.193Z,9.48
2023-05-01T23:05:18.960Z,9.51
2023-05-01T23:11:19.292Z,9.50
2023-05-01T23:16:23.323Z,9.43
2023-05-01T23:22:44.228Z,9.38
2023-05-01T23:27:52.639Z,9.32
2023-05-01T23:40:37.275Z,9.18
2023-05-01T23:46:07.855Z,9.08
2023-05-01T23:51:17.949Z,8.99
2023-05-01T23:56:21.747Z,8.92
